createdAt,value
2023-02-18T00:00:23.649Z,11.80
2023-02-18T00:03:28.792Z,11.80
2023-02-18T00:06:33.727Z,11.80
2023-02-18T00:09:35.356Z,11.80
2023-02-18T00:12:37.126Z,11.80
2023-02-18T00:15:39.587Z,11.80
2023-02-18T00:18:41.210Z,11.80
2023-02-18T00:21:43.650Z,11.80
2023-02-18T00:24:45.225Z,11.70
2023-02-18T00:27:46.878Z,11.70
2023-02-18T00:30:48.487Z,11.70
2023-02-18T00:33:50.337Z,11.70
2023-02-18T00:36:51.989Z,11.70
2023-02-18T00:39:53.751Z,11.60
2023-02-18T00:42:55.426Z,11.60
2023-02-18T00:45:57.086Z,11.60
2023-02-18T00:48:58.738Z,11.60
2023-02-18T00:52:00.366Z,11.60
2023-02-18T00:55:02.043Z,11.60
2023-02-18T00:58:03.634Z,11.60
2023-02-18T01:01:07.617Z,11.60
2023-02-18T01:04:09.570Z,11.60
2023-02-18T01:07:11.313Z,11.60
2023-02-18T01:10:12.922Z,11.70
2023-02-18T01:13:16.021Z,11.70
2023-02-18T01:16:17.887Z,11.70
2023-02-18T01:19:19.640Z,11.70
2023-02-18T01:22:21.250Z,11.70
2023-02-18T01:25:23.127Z,11.70
2023-02-18T01:28:25.817Z,11.70
2023-02-18T01:31:27.811Z,11.60
2023-02-18T01:34:29.442Z,11.70
2023-02-18T01:37:31.127Z,11.60
2023-02-18T01:40:33.125Z,11.60
2023-02-18T01:43:35.414Z,11.60
2023-02-18T01:46:37.064Z,11.60
2023-02-18T01:49:39.377Z,11.60
2023-02-18T01:52:41.004Z,11.60
2023-02-18T01:55:42.886Z,11.60
2023-02-18T01:58:44.842Z,11.60
2023-02-18T02:01:47.197Z,11.50
2023-02-18T02:04:49.696Z,11.50
2023-02-18T02:07:53.891Z,11.40
2023-02-18T02:11:21.411Z,11.40
2023-02-18T02:15:07.734Z,11.40
2023-02-18T02:18:27.988Z,11.40
2023-02-18T02:22:10.525Z,11.40
2023-02-18T02:25:30.282Z,11.40
2023-02-18T02:29:09.477Z,11.40
2023-02-18T02:32:37.859Z,11.40
2023-02-18T02:35:55.206Z,11.40
2023-02-18T02:39:08.301Z,11.40
2023-02-18T02:42:49.441Z,11.40
2023-02-18T02:46:15.839Z,11.30
2023-02-18T02:49:32.412Z,11.40
2023-02-18T02:52:40.938Z,11.40
2023-02-18T02:55:42.595Z,11.30
2023-02-18T02:58:47.505Z,11.30
2023-02-18T03:02:03.777Z,11.40
2023-02-18T03:05:31.474Z,11.40
2023-02-18T03:08:55.609Z,11.50
2023-02-18T03:12:15.030Z,11.40
2023-02-18T03:15:31.481Z,11.40
2023-02-18T03:18:35.039Z,11.30
2023-02-18T03:21:42.590Z,11.30
2023-02-18T03:24:47.001Z,11.20
2023-02-18T03:27:57.690Z,11.20
2023-02-18T03:31:13.845Z,11.20
2023-02-18T03:34:25.384Z,11.20
2023-02-18T03:37:27.643Z,11.20
2023-02-18T03:40:30.715Z,11.20
2023-02-18T03:43:32.432Z,11.20
2023-02-18T03:46:35.778Z,11.20
2023-02-18T03:49:37.406Z,11.20
2023-02-18T03:52:38.972Z,11.20
2023-02-18T03:55:40.656Z,11.20
2023-02-18T03:58:42.222Z,11.20
2023-02-18T04:01:43.773Z,11.20
2023-02-18T04:04:45.407Z,11.20
2023-02-18T04:07:46.969Z,11.20
2023-02-18T04:10:48.770Z,11.20
2023-02-18T04:13:50.342Z,11.20
2023-02-18T04:16:51.948Z,11.30
2023-02-18T04:19:53.537Z,11.30
2023-02-18T04:22:55.326Z,11.30
2023-02-18T04:25:56.956Z,11.40
2023-02-18T04:28:58.682Z,11.40
2023-02-18T04:32:00.344Z,11.40
2023-02-18T04:35:02.123Z,11.40
2023-02-18T04:38:04.106Z,11.40
2023-02-18T04:41:05.784Z,11.40
2023-02-18T04:44:07.450Z,11.40
2023-02-18T04:47:09.301Z,11.40
2023-02-18T04:50:11.253Z,11.40
2023-02-18T04:53:12.911Z,11.40
2023-02-18T04:56:14.562Z,11.40
2023-02-18T04:59:16.250Z,11.40
2023-02-18T05:02:17.826Z,11.40
2023-02-18T05:05:19.416Z,11.30
2023-02-18T05:08:21.081Z,11.30
2023-02-18T05:11:22.787Z,11.30
2023-02-18T05:14:24.384Z,11.30
2023-02-18T05:17:26.017Z,11.30
2023-02-18T05:20:28.235Z,11.30
2023-02-18T05:23:29.841Z,11.30
2023-02-18T05:26:31.427Z,11.20
2023-02-18T05:29:33.034Z,11.20
2023-02-18T05:32:34.752Z,11.20
2023-02-18T05:35:36.333Z,11.20
2023-02-18T05:38:37.898Z,11.20
2023-02-18T05:41:39.511Z,11.30
2023-02-18T05:44:41.179Z,11.30
2023-02-18T05:47:43.059Z,11.30
2023-02-18T05:50:44.738Z,11.30
2023-02-18T05:53:46.313Z,11.30
2023-02-18T05:56:48.075Z,11.30
2023-02-18T05:59:49.845Z,11.30
2023-02-18T06:02:51.464Z,11.30
2023-02-18T06:05:53.364Z,11.30
2023-02-18T06:08:55.004Z,11.30
2023-02-18T06:11:56.586Z,11.30
2023-02-18T06:14:58.183Z,11.30
2023-02-18T06:17:59.793Z,11.30
2023-02-18T06:21:01.366Z,11.30
2023-02-18T06:24:03.002Z,11.30
2023-02-18T06:27:05.201Z,11.30
2023-02-18T06:30:07.447Z,11.30
2023-02-18T06:33:09.036Z,11.30
2023-02-18T06:36:12.255Z,11.40
2023-02-18T06:39:14.111Z,11.40
2023-02-18T06:42:15.791Z,11.40
2023-02-18T06:45:17.532Z,11.40
2023-02-18T06:48:19.416Z,11.40
2023-02-18T06:51:21.076Z,11.40
2023-02-18T06:54:22.633Z,11.40
2023-02-18T06:57:24.353Z,11.40
2023-02-18T07:00:25.977Z,11.40
2023-02-18T07:03:27.740Z,11.40
2023-02-18T07:06:29.460Z,11.40
2023-02-18T07:09:31.101Z,11.40
2023-02-18T07:12:33.356Z,11.50
2023-02-18T07:15:35.185Z,11.40
2023-02-18T07:18:36.789Z,11.40
2023-02-18T07:21:38.366Z,11.50
2023-02-18T07:24:40.046Z,11.50
2023-02-18T07:27:41.659Z,11.50
2023-02-18T07:30:46.061Z,11.50
2023-02-18T07:33:47.844Z,11.50
2023-02-18T07:36:49.509Z,11.50
2023-02-18T07:39:51.107Z,11.50
2023-02-18T07:42:52.921Z,11.50
2023-02-18T07:45:54.818Z,11.50
2023-02-18T07:48:59.260Z,11.50
2023-02-18T07:52:01.849Z,11.50
2023-02-18T07:55:04.283Z,11.50
2023-02-18T07:58:05.876Z,11.50
2023-02-18T08:01:10.240Z,11.50
2023-02-18T08:04:12.031Z,11.60
2023-02-18T08:07:15.390Z,11.60
2023-02-18T08:10:17.321Z,11.60
2023-02-18T08:13:19.338Z,11.60
2023-02-18T08:16:22.280Z,11.60
2023-02-18T08:19:23.913Z,11.70
2023-02-18T08:22:25.631Z,11.70
2023-02-18T08:25:29.923Z,11.70
2023-02-18T08:28:31.680Z,11.70
2023-02-18T08:31:33.884Z,11.70
2023-02-18T08:34:35.495Z,11.80
2023-02-18T08:37:52.751Z,11.80
2023-02-18T08:41:04.493Z,11.80
2023-02-18T08:44:06.192Z,11.80
2023-02-18T08:48:13.534Z,11.80
2023-02-18T08:50:29.531Z,11.80
2023-02-18T08:53:31.085Z,11.70
2023-02-18T08:56:33.443Z,11.70
2023-02-18T08:59:35.090Z,11.70
2023-02-18T09:02:36.693Z,11.70
2023-02-18T09:05:40.140Z,11.70
2023-02-18T09:08:41.781Z,11.80
2023-02-18T09:11:44.593Z,11.80
2023-02-18T09:14:48.267Z,11.90
2023-02-18T09:17:49.906Z,11.90
2023-02-18T09:20:51.648Z,11.90
2023-02-18T09:23:53.290Z,12.00
2023-02-18T09:26:55.496Z,12.00
2023-02-18T09:29:57.156Z,12.10
2023-02-18T09:32:58.798Z,12.20
2023-02-18T09:36:01.767Z,12.30
2023-02-18T09:39:03.517Z,12.30
2023-02-18T09:42:15.098Z,12.50
2023-02-18T09:45:16.865Z,12.50
2023-02-18T09:48:18.584Z,12.60
2023-02-18T09:51:20.400Z,12.60
2023-02-18T09:54:22.601Z,12.50
2023-02-18T09:57:43.852Z,12.40
2023-02-18T10:00:50.566Z,12.50
2023-02-18T10:03:55.505Z,12.50
2023-02-18T10:06:58.286Z,12.60
2023-02-18T10:10:12.288Z,12.50
2023-02-18T10:13:20.956Z,12.50
2023-02-18T10:16:24.286Z,12.60
2023-02-18T10:19:37.440Z,12.60
2023-02-18T10:22:39.352Z,12.50
2023-02-18T10:25:44.855Z,12.50
2023-02-18T10:28:47.134Z,12.60
2023-02-18T10:32:08.887Z,12.50
2023-02-18T10:35:34.016Z,12.50
2023-02-18T10:39:02.126Z,12.50
2023-02-18T10:42:41.176Z,12.40
2023-02-18T10:46:04.831Z,12.30
2023-02-18T10:49:31.803Z,12.30
2023-02-18T10:52:49.203Z,12.30
2023-02-18T10:55:50.968Z,12.40
2023-02-18T10:59:00.448Z,12.50
2023-02-18T11:02:13.282Z,12.60
2023-02-18T11:05:24.517Z,12.60
2023-02-18T11:08:29.731Z,12.60
2023-02-18T11:11:36.343Z,12.60
2023-02-18T11:14:40.455Z,12.70
2023-02-18T11:17:43.990Z,12.70
2023-02-18T11:20:56.340Z,12.70
2023-02-18T11:24:08.671Z,12.60
2023-02-18T11:27:14.473Z,12.50
2023-02-18T11:30:30.229Z,12.50
2023-02-18T11:33:43.314Z,12.50
2023-02-18T11:36:45.930Z,12.50
2023-02-18T11:39:51.506Z,12.40
2023-02-18T11:43:07.066Z,12.30
2023-02-18T11:46:14.458Z,12.40
2023-02-18T11:49:23.533Z,12.50
2023-02-18T11:52:39.287Z,12.50
2023-02-18T11:56:02.065Z,12.40
2023-02-18T11:59:04.347Z,12.40
2023-02-18T12:02:12.124Z,12.40
2023-02-18T12:05:25.571Z,12.40
2023-02-18T12:08:45.440Z,12.30
2023-02-18T12:12:27.861Z,12.30
2023-02-18T12:15:52.586Z,12.20
2023-02-18T12:19:27.433Z,12.20
2023-02-18T12:22:37.867Z,12.20
2023-02-18T12:25:58.110Z,12.10
2023-02-18T12:29:41.235Z,12.20
2023-02-18T12:33:07.446Z,12.30
2023-02-18T12:36:33.451Z,12.40
2023-02-18T12:40:03.442Z,12.50
2023-02-18T12:43:16.469Z,12.60
2023-02-18T12:46:31.645Z,12.60
2023-02-18T12:50:18.746Z,12.50
2023-02-18T12:53:34.213Z,12.60
2023-02-18T12:56:38.924Z,12.60
2023-02-18T13:00:15.425Z,12.60
2023-02-18T13:03:54.968Z,12.60
2023-02-18T13:07:40.200Z,12.70
2023-02-18T13:11:04.785Z,12.80
2023-02-18T13:14:19.938Z,12.90
2023-02-18T13:17:22.378Z,12.90
2023-02-18T13:20:43.036Z,12.90
2023-02-18T13:23:53.071Z,12.90
2023-02-18T13:27:05.507Z,12.90
2023-02-18T13:30:28.491Z,12.90
2023-02-18T13:33:39.930Z,12.90
2023-02-18T13:37:04.043Z,12.90
2023-02-18T13:40:14.376Z,12.80
2023-02-18T13:43:24.583Z,12.60
2023-02-18T13:46:28.152Z,12.60
2023-02-18T13:49:34.731Z,12.50
2023-02-18T13:52:36.318Z,12.50
2023-02-18T13:56:09.666Z,12.50
2023-02-18T13:59:20.709Z,12.50
2023-02-18T14:02:25.587Z,12.50
2023-02-18T14:05:39.732Z,12.50
2023-02-18T14:08:41.351Z,12.50
2023-02-18T14:11:54.692Z,12.50
2023-02-18T14:14:58.327Z,12.50
2023-02-18T14:18:22.480Z,12.40
2023-02-18T14:21:39.564Z,12.40
2023-02-18T14:24:48.673Z,12.40
2023-02-18T14:27:52.812Z,12.30
2023-02-18T14:30:54.594Z,12.30
2023-02-18T14:34:25.816Z,12.30
2023-02-18T14:37:36.565Z,12.30
2023-02-18T14:41:11.679Z,12.20
2023-02-18T14:44:50.938Z,12.10
2023-02-18T14:48:14.835Z,12.10
2023-02-18T14:51:22.640Z,12.00
2023-02-18T14:54:27.338Z,12.00
2023-02-18T14:57:45.482Z,11.90
2023-02-18T15:00:47.053Z,11.90
2023-02-18T15:03:50.399Z,11.80
2023-02-18T15:07:03.542Z,11.80
2023-02-18T15:10:05.785Z,11.70
2023-02-18T15:13:29.425Z,11.60
2023-02-18T15:16:33.812Z,11.60
2023-02-18T15:19:42.796Z,11.70
2023-02-18T15:22:44.759Z,11.70
2023-02-18T15:25:51.743Z,11.80
2023-02-18T15:29:05.744Z,11.90
2023-02-18T15:32:22.225Z,11.90
2023-02-18T15:35:31.406Z,11.90
2023-02-18T15:38:33.507Z,11.90
2023-02-18T15:41:35.332Z,12.00
2023-02-18T15:44:37.524Z,11.90
2023-02-18T15:47:48.705Z,11.90
2023-02-18T15:50:53.428Z,11.90
2023-02-18T15:53:59.059Z,11.90
2023-02-18T15:57:03.140Z,11.90
2023-02-18T16:00:32.282Z,11.80
2023-02-18T16:03:37.280Z,11.90
2023-02-18T16:06:46.877Z,11.90
2023-02-18T16:09:48.774Z,11.80
2023-02-18T16:12:54.298Z,11.80
2023-02-18T16:15:56.464Z,11.80
2023-02-18T16:18:58.081Z,11.80
2023-02-18T16:22:06.236Z,11.80
2023-02-18T16:25:14.445Z,11.80
2023-02-18T16:28:31.728Z,11.70
2023-02-18T16:31:33.388Z,11.70
2023-02-18T16:34:35.769Z,11.60
2023-02-18T16:37:40.556Z,11.60
2023-02-18T16:40:43.102Z,11.60
2023-02-18T16:43:44.824Z,11.60
2023-02-18T16:46:46.559Z,11.50
2023-02-18T16:49:51.037Z,11.50
2023-02-18T16:52:52.683Z,11.50
2023-02-18T16:55:54.265Z,11.40
2023-02-18T16:58:55.876Z,11.40
2023-02-18T17:01:57.747Z,11.30
2023-02-18T17:04:59.333Z,11.30
2023-02-18T17:08:12.138Z,11.20
2023-02-18T17:11:28.408Z,11.20
2023-02-18T17:14:30.062Z,11.20
2023-02-18T17:17:31.933Z,11.10
2023-02-18T17:20:33.987Z,11.10
2023-02-18T17:23:35.615Z,11.10
2023-02-18T17:26:37.187Z,11.10
2023-02-18T17:29:38.789Z,11.10
2023-02-18T17:32:41.537Z,11.10
2023-02-18T17:35:43.425Z,11.10
2023-02-18T17:38:45.966Z,11.10
2023-02-18T17:41:47.676Z,11.10
2023-02-18T17:44:49.291Z,11.10
2023-02-18T17:47:50.881Z,11.10
2023-02-18T17:50:53.021Z,11.10
2023-02-18T17:53:55.089Z,11.10
2023-02-18T17:57:02.721Z,11.00
2023-02-18T18:00:05.158Z,11.00
2023-02-18T18:03:09.896Z,11.00
2023-02-18T18:06:19.811Z,11.00
2023-02-18T18:09:21.474Z,11.00
2023-02-18T18:12:23.528Z,11.00
2023-02-18T18:15:29.089Z,11.00
2023-02-18T18:18:30.928Z,11.00
2023-02-18T18:21:35.171Z,11.00
2023-02-18T18:24:36.821Z,11.00
2023-02-18T18:27:38.423Z,11.00
2023-02-18T18:30:43.003Z,11.00
2023-02-18T18:33:48.846Z,11.00
2023-02-18T18:36:50.424Z,11.00
2023-02-18T18:39:51.959Z,10.90
2023-02-18T18:42:54.755Z,10.90
2023-02-18T18:45:56.705Z,10.90
2023-02-18T18:48:58.292Z,10.80
2023-02-18T18:52:00.017Z,10.80
2023-02-18T18:55:01.926Z,10.80
2023-02-18T18:58:04.473Z,10.80
2023-02-18T19:01:15.940Z,10.80
2023-02-18T19:04:18.881Z,10.80
2023-02-18T19:07:20.496Z,10.80
2023-02-18T19:10:22.806Z,10.80
2023-02-18T19:13:29.056Z,10.80
2023-02-18T19:16:37.070Z,10.80
2023-02-18T19:19:38.646Z,10.80
2023-02-18T19:22:40.228Z,10.70
2023-02-18T19:25:42.555Z,10.70
2023-02-18T19:28:45.497Z,10.70
2023-02-18T19:31:47.183Z,10.70
2023-02-18T19:34:48.838Z,10.70
2023-02-18T19:37:50.798Z,10.70
2023-02-18T19:40:53.851Z,10.70
2023-02-18T19:43:55.532Z,10.70
2023-02-18T19:46:58.903Z,10.70
2023-02-18T19:50:02.035Z,10.70
2023-02-18T19:53:03.644Z,10.70
2023-02-18T19:56:09.090Z,10.70
2023-02-18T19:59:10.755Z,10.70
2023-02-18T20:02:23.970Z,10.70
2023-02-18T20:05:25.811Z,10.70
2023-02-18T20:08:27.372Z,10.70
2023-02-18T20:11:31.205Z,10.60
2023-02-18T20:14:33.149Z,10.60
2023-02-18T20:17:34.774Z,10.50
2023-02-18T20:20:36.398Z,10.50
2023-02-18T20:23:37.976Z,10.40
2023-02-18T20:26:39.602Z,10.40
2023-02-18T20:29:41.201Z,10.40
2023-02-18T20:32:43.141Z,10.30
2023-02-18T20:35:44.769Z,10.30
2023-02-18T20:38:51.625Z,10.20
2023-02-18T20:41:53.588Z,10.20
2023-02-18T20:44:55.184Z,10.20
2023-02-18T20:47:56.726Z,10.20
2023-02-18T20:51:06.389Z,10.20
2023-02-18T20:54:09.951Z,10.20
2023-02-18T20:57:11.554Z,10.10
2023-02-18T21:00:13.769Z,10.20
2023-02-18T21:03:15.326Z,10.20
2023-02-18T21:06:19.990Z,10.20
2023-02-18T21:09:21.747Z,10.20
2023-02-18T21:12:23.360Z,10.20
2023-02-18T21:15:24.972Z,10.20
2023-02-18T21:18:26.991Z,10.20
2023-02-18T21:21:28.856Z,10.20
2023-02-18T21:24:31.865Z,10.20
2023-02-18T21:27:33.474Z,10.20
2023-02-18T21:30:36.956Z,10.20
2023-02-18T21:33:38.651Z,10.20
2023-02-18T21:36:40.807Z,10.20
2023-02-18T21:39:42.408Z,10.20
2023-02-18T21:42:44.180Z,10.20
2023-02-18T21:45:45.744Z,10.20
2023-02-18T21:49:02.705Z,10.20
2023-02-18T21:52:10.257Z,10.20
2023-02-18T21:55:12.552Z,10.20
2023-02-18T21:58:14.154Z,10.20
2023-02-18T22:01:15.829Z,10.20
2023-02-18T22:04:17.682Z,10.10
2023-02-18T22:07:21.846Z,10.20
2023-02-18T22:10:23.497Z,10.20
2023-02-18T22:13:25.092Z,10.20
2023-02-18T22:16:28.215Z,10.20
2023-02-18T22:19:30.016Z,10.10
2023-02-18T22:22:32.327Z,10.20
2023-02-18T22:25:35.381Z,10.10
2023-02-18T22:28:37.159Z,10.10
2023-02-18T22:31:39.072Z,10.20
2023-02-18T22:34:40.770Z,10.10
2023-02-18T22:37:42.412Z,10.10
2023-02-18T22:40:44.105Z,10.20
2023-02-18T22:43:46.563Z,10.10
2023-02-18T22:46:48.342Z,10.20
2023-02-18T22:49:50.346Z,10.10
2023-02-18T22:52:52.101Z,10.10
2023-02-18T22:55:58.492Z,10.10
2023-02-18T22:59:00.411Z,10.20
2023-02-18T23:02:02.124Z,10.10
2023-02-18T23:05:03.735Z,10.10
2023-02-18T23:08:06.437Z,10.10
2023-02-18T23:11:14.352Z,10.20
2023-02-18T23:14:19.229Z,10.10
2023-02-18T23:17:21.078Z,10.10
2023-02-18T23:20:42.651Z,10.10
2023-02-18T23:23:55.368Z,10.10
2023-02-18T23:26:56.920Z,10.10
2023-02-18T23:29:58.676Z,10.10
2023-02-18T23:33:00.325Z,10.10
2023-02-18T23:36:12.964Z,10.10
2023-02-18T23:39:20.236Z,10.10
2023-02-18T23:42:21.859Z,10.10
2023-02-18T23:45:23.433Z,10.00
2023-02-18T23:48:25.289Z,10.00
2023-02-18T23:51:27.408Z,10.10
2023-02-18T23:54:28.993Z,10.10
2023-02-18T23:57:31.927Z,10.10
